North Jutland Ultralight Flying Club

DK-0031 · North Denmark, 丹麦

罗盘
风向 的 风向 090° North Jutland Ultralight Flying Club 13/31
风: 8 kt, 3 beaufort

6 kt

5 kt
改变
0 ft 2.000 4.000 6.000 8.000 10.000
Cloud Cloud Cloud Cloud Cloud Cloud
BKN 5.700
Cloud Cloud Cloud Cloud Cloud Cloud Cloud Cloud
OVC 7.400
METAR EKYT 032150Z AUTO 09008KT 6000 -DZ BKN057/// OVC074/// 06/06 Q1012

METAR North Jutland Ultralight Flying Club - DK-0031

North Jutland Ultralight Flying Club是,丹麦中的小机场。 该机场位于纬度57,24781和经度9,94122。 该机场有一条跑道: 13/31. 这个机场没有ICAO代码,我们使用DK-0031作为参考。 机场在Kobenhavn FIR中。

该航空气象观测是针对Aalborg Airport在2024年3月3日 22:50, 当地时间进行的。

机场观察

风向为090°,速度为8 kt。

可见度为6 km。

有碎云在5.700 ft的高度 和 乌云密布在7.400 ft的高度。 破损或更高的上限为5.700 ft。

当前天气为光 细雨。 温度为6 °C,阵风为2 °C。 露点为6 °C,相对湿度为100%。 海平面上的气压为1012 hPa (QNH)。

白天

今天,太阳从07:06升起,在17:57降落。 这适用于North Jutland Ultralight Flying Club,世界夏令时可能有所不同。 当地时间与世界标准时间之间的时差为+1 小时。 当前,没有夏令时有效。

公司介绍

我们没有关于这个机场的公司信息。

体会

到Vliegles.nl去找飞行课程,跳伞和其他飞行体验。 浏览页面,了解North Jutland Ultralight Flying Club附近所有可用的活动。 你也可以使用搜索功能来寻找你所在地附近的特定飞行课程、跳伞或其他飞行体验。

跑道

Id 标题 侧风 逆风 侧风 %
13/31 130°-310° 5 kt 6 kt 64 %

逆风成分最大的方向会被突出显示,并用于横风计算。 这并不一定意味着这个方向在使用。

乌云

5.700 ft BKN 碎云
7.400 ft OVC 乌云密布

温度 & 天气

天气 光 细雨
温度 6 °C
露点 6 °C
相对湿度 100%
风寒 2 °C
Kp-index 3 (0-9)

白天

日出
07:06 (7:51)
中午
12:32
日落
17:57

小工具

你想在你的网站上有一个关于North Jutland Ultralight Flying Club的当前航空天气(METAR)的小部件吗?

显示HTML代码
?>